createdAt,value
2023-05-05T00:00:16.028Z,2.70
2023-05-05T00:02:43.867Z,2.92
2023-05-05T00:05:11.331Z,3.10
2023-05-05T00:07:38.766Z,2.42
2023-05-05T00:10:06.655Z,3.08
2023-05-05T00:12:34.140Z,3.17
2023-05-05T00:15:01.366Z,2.42
2023-05-05T00:17:28.613Z,2.90
2023-05-05T00:19:55.791Z,2.58
2023-05-05T00:22:22.943Z,3.08
2023-05-05T00:24:50.012Z,2.53
2023-05-05T00:27:17.289Z,2.92
2023-05-05T00:29:44.778Z,2.72
2023-05-05T00:32:11.917Z,2.67
2023-05-05T00:34:39.035Z,2.75
2023-05-05T00:37:06.592Z,2.80
2023-05-05T00:39:33.669Z,2.63
2023-05-05T00:42:00.843Z,2.60
2023-05-05T00:44:42.220Z,2.72
2023-05-05T00:47:09.868Z,2.42
2023-05-05T00:49:37.359Z,2.33
2023-05-05T00:52:05.575Z,2.92
2023-05-05T00:54:34.688Z,2.90
2023-05-05T00:57:05.061Z,3.10
2023-05-05T00:59:34.644Z,2.42
2023-05-05T01:02:02.049Z,2.78
2023-05-05T01:04:29.284Z,2.95
2023-05-05T01:07:14.860Z,2.42
2023-05-05T01:09:44.695Z,2.72
2023-05-05T01:12:26.876Z,2.65
2023-05-05T01:15:04.795Z,2.72
2023-05-05T01:17:50.094Z,2.60
2023-05-05T01:20:19.633Z,2.65
2023-05-05T01:22:50.134Z,2.70
2023-05-05T01:26:08.863Z,3.17
2023-05-05T01:28:39.513Z,3.08
2023-05-05T01:31:52.141Z,2.38
2023-05-05T01:34:34.056Z,2.25
2023-05-05T01:37:15.650Z,2.60
2023-05-05T01:39:45.106Z,2.75
2023-05-05T01:42:15.246Z,2.67
2023-05-05T01:44:44.679Z,2.97
2023-05-05T01:47:17.968Z,2.95
2023-05-05T01:49:47.899Z,2.70
2023-05-05T01:52:16.359Z,2.63
2023-05-05T01:54:45.898Z,2.70
2023-05-05T01:57:14.745Z,2.67
2023-05-05T01:59:41.836Z,2.45
2023-05-05T02:02:11.237Z,2.17
2023-05-05T02:04:42.670Z,2.50
2023-05-05T02:07:12.753Z,2.53
2023-05-05T02:09:40.880Z,2.40
2023-05-05T02:12:08.702Z,2.63
2023-05-05T02:14:37.208Z,2.20
2023-05-05T02:17:04.945Z,2.55
2023-05-05T02:19:40.264Z,2.53
2023-05-05T02:22:07.514Z,2.67
2023-05-05T02:24:34.983Z,2.60
2023-05-05T02:27:06.346Z,2.40
2023-05-05T02:29:36.569Z,2.63
2023-05-05T02:32:17.097Z,2.97
2023-05-05T02:34:46.529Z,2.58
2023-05-05T02:37:21.426Z,2.63
2023-05-05T02:39:59.190Z,2.70
2023-05-05T02:42:32.339Z,2.67
2023-05-05T02:45:14.284Z,2.55
2023-05-05T02:47:45.187Z,2.92
2023-05-05T02:50:12.614Z,2.55
2023-05-05T02:52:46.536Z,2.28
2023-05-05T02:55:15.024Z,2.53
2023-05-05T02:57:53.735Z,2.97
2023-05-05T03:00:43.944Z,3.13
2023-05-05T03:03:32.702Z,2.08
2023-05-05T03:06:16.640Z,2.70
2023-05-05T03:09:08.020Z,2.55
2023-05-05T03:12:02.482Z,2.20
2023-05-05T03:14:41.632Z,2.42
2023-05-05T03:17:12.576Z,2.53
2023-05-05T03:19:43.585Z,1.90
2023-05-05T03:22:11.536Z,2.47
2023-05-05T03:24:43.198Z,2.13
2023-05-05T03:27:11.439Z,1.90
2023-05-05T03:29:40.074Z,2.47
2023-05-05T03:32:11.772Z,2.07
2023-05-05T03:34:40.641Z,2.20
2023-05-05T03:37:07.816Z,2.15
2023-05-05T03:39:35.001Z,2.60
2023-05-05T03:42:02.524Z,2.33
2023-05-05T03:44:32.418Z,2.45
2023-05-05T03:46:59.558Z,2.10
2023-05-05T03:49:27.988Z,2.33
2023-05-05T03:51:55.156Z,2.28
2023-05-05T03:54:22.620Z,2.47
2023-05-05T03:56:49.859Z,2.33
2023-05-05T03:59:17.461Z,2.78
2023-05-05T04:01:46.707Z,2.50
2023-05-05T04:04:14.068Z,2.45
2023-05-05T04:06:41.358Z,2.50
2023-05-05T04:09:09.331Z,2.10
2023-05-05T04:11:37.915Z,2.40
2023-05-05T04:14:05.160Z,2.33
2023-05-05T04:16:32.581Z,2.47
2023-05-05T04:18:59.797Z,2.58
2023-05-05T04:21:27.809Z,2.38
2023-05-05T04:23:55.853Z,2.40
2023-05-05T04:26:23.206Z,2.03
2023-05-05T04:28:50.567Z,2.53
2023-05-05T04:31:19.025Z,2.08
2023-05-05T04:33:47.251Z,2.25
2023-05-05T04:36:14.788Z,2.33
2023-05-05T04:38:42.101Z,2.33
2023-05-05T04:41:09.244Z,2.40
2023-05-05T04:43:38.731Z,2.67
2023-05-05T04:46:05.976Z,2.85
2023-05-05T04:48:37.977Z,3.17
2023-05-05T04:51:06.556Z,2.53
2023-05-05T04:53:34.545Z,2.30
2023-05-05T04:56:02.812Z,2.03
2023-05-05T04:58:30.131Z,2.25
2023-05-05T05:00:57.649Z,2.05
2023-05-05T05:03:24.841Z,2.42
2023-05-05T05:05:52.412Z,2.40
2023-05-05T05:08:20.197Z,1.85
2023-05-05T05:10:47.459Z,2.40
2023-05-05T05:13:14.663Z,2.47
2023-05-05T05:15:42.112Z,2.70
2023-05-05T05:18:09.327Z,2.65
2023-05-05T05:20:36.748Z,2.33
2023-05-05T05:23:04.684Z,2.20
2023-05-05T05:25:34.873Z,2.33
2023-05-05T05:28:10.191Z,2.50
2023-05-05T05:30:43.976Z,2.40
2023-05-05T05:33:12.301Z,1.88
2023-05-05T05:35:40.702Z,2.92
2023-05-05T05:38:08.761Z,2.20
2023-05-05T05:40:36.482Z,2.35
2023-05-05T05:43:04.403Z,2.20
2023-05-05T05:45:33.270Z,2.38
2023-05-05T05:48:02.566Z,2.42
2023-05-05T05:50:30.388Z,2.30
2023-05-05T05:52:59.220Z,2.63
2023-05-05T05:55:27.175Z,2.47
2023-05-05T05:57:54.774Z,2.85
2023-05-05T06:00:22.170Z,2.45
2023-05-05T06:02:56.436Z,2.50
2023-05-05T06:05:27.570Z,2.38
2023-05-05T06:07:55.160Z,2.20
2023-05-05T06:10:27.546Z,2.17
2023-05-05T06:13:02.065Z,2.65
2023-05-05T06:15:30.770Z,2.83
2023-05-05T06:17:58.364Z,2.80
2023-05-05T06:20:26.650Z,2.60
2023-05-05T06:22:54.789Z,2.50
2023-05-05T06:25:22.559Z,2.70
2023-05-05T06:27:50.677Z,2.72
2023-05-05T06:30:17.935Z,2.67
2023-05-05T06:32:45.196Z,2.78
2023-05-05T06:35:14.975Z,2.83
2023-05-05T06:37:42.260Z,2.35
2023-05-05T06:40:10.596Z,2.50
2023-05-05T06:42:38.057Z,2.30
2023-05-05T06:45:09.120Z,2.60
2023-05-05T06:47:36.638Z,2.80
2023-05-05T06:50:03.982Z,2.42
2023-05-05T06:52:31.126Z,2.47
2023-05-05T06:54:58.169Z,2.83
2023-05-05T06:57:25.924Z,2.70
2023-05-05T06:59:54.066Z,2.70
2023-05-05T07:02:21.307Z,3.00
2023-05-05T07:04:48.558Z,2.60
2023-05-05T07:07:15.790Z,2.67
2023-05-05T07:09:43.037Z,2.85
2023-05-05T07:12:10.189Z,2.92
2023-05-05T07:14:37.347Z,2.75
2023-05-05T07:17:04.429Z,2.33
2023-05-05T07:19:31.578Z,2.80
2023-05-05T07:21:58.718Z,2.40
2023-05-05T07:24:25.940Z,3.05
2023-05-05T07:26:53.117Z,2.88
2023-05-05T07:29:20.265Z,3.05
2023-05-05T07:31:47.544Z,3.00
2023-05-05T07:34:14.665Z,2.72
2023-05-05T07:36:42.144Z,3.13
2023-05-05T07:39:09.354Z,3.28
2023-05-05T07:41:36.510Z,3.40
2023-05-05T07:44:03.672Z,3.25
2023-05-05T07:46:30.809Z,3.45
2023-05-05T07:48:58.038Z,3.08
2023-05-05T07:51:25.254Z,2.67
2023-05-05T07:53:52.488Z,3.15
2023-05-05T07:56:21.661Z,3.33
2023-05-05T07:58:49.200Z,3.33
2023-05-05T08:01:16.358Z,3.20
2023-05-05T08:03:43.643Z,3.58
2023-05-05T08:06:10.932Z,3.40
2023-05-05T08:08:38.655Z,3.83
2023-05-05T08:11:06.747Z,3.55
2023-05-05T08:13:34.673Z,3.33
2023-05-05T08:16:01.849Z,3.58
2023-05-05T08:18:29.162Z,3.28
2023-05-05T08:20:56.608Z,3.58
2023-05-05T08:23:23.714Z,3.45
2023-05-05T08:25:50.798Z,3.38
2023-05-05T08:28:17.980Z,3.72
2023-05-05T08:30:45.062Z,3.13
2023-05-05T08:33:12.298Z,3.35
2023-05-05T08:35:39.505Z,3.47
2023-05-05T08:38:06.824Z,3.55
2023-05-05T08:40:34.991Z,4.10
2023-05-05T08:43:02.238Z,3.35
2023-05-05T08:45:29.790Z,3.65
2023-05-05T08:47:58.168Z,3.47
2023-05-05T08:50:27.876Z,3.70
2023-05-05T08:53:17.355Z,3.95
2023-05-05T08:55:59.277Z,3.42
2023-05-05T08:58:28.966Z,3.90
2023-05-05T09:00:57.430Z,4.80
2023-05-05T09:03:27.133Z,3.72
2023-05-05T09:05:54.424Z,4.45
2023-05-05T09:08:22.353Z,4.25
2023-05-05T09:10:53.916Z,4.28
2023-05-05T09:13:27.261Z,4.47
2023-05-05T09:15:54.380Z,4.95
2023-05-05T09:18:21.587Z,4.35
2023-05-05T09:20:48.830Z,4.18
2023-05-05T09:23:17.863Z,4.13
2023-05-05T09:26:02.499Z,4.68
2023-05-05T09:28:30.054Z,4.38
2023-05-05T09:31:13.340Z,4.93
2023-05-05T09:33:40.550Z,5.03
2023-05-05T09:36:08.075Z,5.22
2023-05-05T09:38:36.887Z,5.32
2023-05-05T09:41:05.552Z,5.28
2023-05-05T09:43:51.843Z,4.90
2023-05-05T09:46:19.332Z,5.18
2023-05-05T09:48:46.589Z,4.90
2023-05-05T09:51:16.025Z,5.20
2023-05-05T09:53:44.199Z,5.35
2023-05-05T09:56:12.406Z,5.07
2023-05-05T09:58:39.696Z,5.57
2023-05-05T10:01:21.605Z,5.15
2023-05-05T10:03:52.424Z,5.47
2023-05-05T10:06:19.637Z,5.43
2023-05-05T10:09:01.880Z,5.43
2023-05-05T10:11:29.250Z,5.32
2023-05-05T10:13:57.710Z,5.45
2023-05-05T10:16:25.942Z,5.07
2023-05-05T10:18:54.905Z,5.53
2023-05-05T10:21:22.859Z,5.93
2023-05-05T10:23:58.082Z,5.85
2023-05-05T10:26:27.759Z,5.65
2023-05-05T10:29:03.192Z,5.63
2023-05-05T10:31:46.817Z,6.00
2023-05-05T10:34:27.338Z,5.80
2023-05-05T10:36:56.985Z,5.60
2023-05-05T10:39:25.140Z,5.72
2023-05-05T10:41:53.046Z,6.05
2023-05-05T10:44:21.141Z,5.97
2023-05-05T10:46:48.562Z,6.07
2023-05-05T10:49:30.429Z,5.97
2023-05-05T10:52:03.359Z,6.40
2023-05-05T10:54:45.888Z,6.30
2023-05-05T10:57:16.962Z,6.85
2023-05-05T10:59:44.429Z,6.72
2023-05-05T11:02:21.469Z,6.78
2023-05-05T11:05:23.350Z,6.05
2023-05-05T11:07:51.981Z,6.73
2023-05-05T11:10:20.896Z,6.70
2023-05-05T11:13:02.593Z,6.97
2023-05-05T11:15:30.099Z,6.23
2023-05-05T11:18:07.449Z,6.43
2023-05-05T11:20:40.920Z,6.85
2023-05-05T11:23:08.253Z,7.18
2023-05-05T11:25:35.885Z,6.82
2023-05-05T11:28:21.223Z,6.70
2023-05-05T11:30:58.859Z,7.43
2023-05-05T11:33:30.712Z,7.10
2023-05-05T11:36:06.842Z,6.80
2023-05-05T11:38:52.466Z,6.47
2023-05-05T11:41:34.278Z,6.95
2023-05-05T11:44:17.039Z,7.70
2023-05-05T11:46:53.224Z,7.35
2023-05-05T11:49:41.271Z,7.43
2023-05-05T11:52:10.934Z,7.38
2023-05-05T11:54:41.440Z,6.75
2023-05-05T11:57:09.214Z,7.40
2023-05-05T11:59:49.623Z,7.05
2023-05-05T12:02:20.662Z,7.32
2023-05-05T12:04:48.432Z,6.85
2023-05-05T12:07:19.932Z,7.25
2023-05-05T12:09:48.290Z,7.25
2023-05-05T12:12:16.130Z,8.05
2023-05-05T12:14:47.207Z,8.38
2023-05-05T12:17:14.640Z,7.75
2023-05-05T12:19:54.672Z,7.72
2023-05-05T12:22:27.173Z,6.75
2023-05-05T12:25:01.147Z,7.25
2023-05-05T12:27:29.030Z,6.85
2023-05-05T12:29:57.216Z,6.95
2023-05-05T12:32:31.132Z,7.47
2023-05-05T12:34:58.361Z,8.20
2023-05-05T12:37:26.962Z,7.68
2023-05-05T12:39:55.157Z,7.60
2023-05-05T12:42:23.309Z,8.70
2023-05-05T12:44:50.488Z,7.72
2023-05-05T12:47:38.487Z,9.02
2023-05-05T12:50:06.234Z,8.13
2023-05-05T12:52:44.929Z,8.75
2023-05-05T12:55:12.757Z,7.57
2023-05-05T12:57:58.390Z,7.85
2023-05-05T13:00:26.141Z,7.70
2023-05-05T13:02:53.417Z,7.82
2023-05-05T13:05:33.705Z,9.95
2023-05-05T13:08:00.910Z,8.70
2023-05-05T13:10:28.527Z,7.82
2023-05-05T13:12:56.897Z,7.80
2023-05-05T13:15:24.962Z,7.78
2023-05-05T13:18:00.368Z,7.22
2023-05-05T13:20:27.879Z,8.00
2023-05-05T13:22:55.218Z,8.25
2023-05-05T13:25:22.620Z,7.65
2023-05-05T13:27:49.902Z,9.50
2023-05-05T13:30:17.076Z,8.85
2023-05-05T13:32:44.303Z,8.43
2023-05-05T13:35:13.837Z,8.80
2023-05-05T13:37:42.799Z,8.73
2023-05-05T13:40:10.905Z,8.68
2023-05-05T13:42:38.038Z,9.10
2023-05-05T13:45:05.593Z,8.48
2023-05-05T13:47:33.097Z,8.25
2023-05-05T13:50:00.781Z,8.27
2023-05-05T13:52:29.008Z,8.00
2023-05-05T13:54:57.690Z,7.78
2023-05-05T13:57:25.149Z,7.55
2023-05-05T13:59:52.245Z,6.75
2023-05-05T14:02:19.363Z,6.68
2023-05-05T14:04:46.793Z,7.78
2023-05-05T14:07:15.649Z,7.40
2023-05-05T14:09:42.800Z,7.07
2023-05-05T14:12:10.314Z,6.15
2023-05-05T14:14:37.819Z,5.75
2023-05-05T14:17:05.232Z,5.10
2023-05-05T14:19:32.556Z,4.85
2023-05-05T14:21:59.744Z,4.88
2023-05-05T14:24:27.340Z,4.90
2023-05-05T14:26:54.636Z,4.88
2023-05-05T14:29:21.778Z,5.78
2023-05-05T14:31:48.920Z,7.13
2023-05-05T14:34:16.117Z,6.35
2023-05-05T14:36:43.171Z,6.35
2023-05-05T14:39:10.360Z,6.30
2023-05-05T14:41:37.454Z,6.80
2023-05-05T14:44:04.714Z,6.07
2023-05-05T14:46:33.790Z,5.78
2023-05-05T14:49:01.070Z,5.05
2023-05-05T14:51:28.214Z,4.40
2023-05-05T14:53:55.880Z,5.10
2023-05-05T14:56:24.498Z,4.55
2023-05-05T14:58:51.667Z,5.10
2023-05-05T15:01:20.699Z,5.32
2023-05-05T15:03:47.978Z,4.65
2023-05-05T15:06:15.161Z,5.50
2023-05-05T15:08:42.597Z,5.50
2023-05-05T15:11:09.746Z,4.78
2023-05-05T15:13:40.134Z,5.90
2023-05-05T15:16:08.254Z,5.68
2023-05-05T15:18:35.768Z,5.70
2023-05-05T15:21:02.992Z,5.45
2023-05-05T15:23:30.053Z,4.97
2023-05-05T15:25:57.218Z,4.82
2023-05-05T15:28:24.489Z,4.93
2023-05-05T15:30:51.620Z,4.63
2023-05-05T15:33:18.799Z,4.43
2023-05-05T15:35:45.980Z,4.80
2023-05-05T15:38:13.203Z,4.75
2023-05-05T15:40:40.319Z,4.90
2023-05-05T15:43:07.473Z,5.15
2023-05-05T15:45:34.695Z,5.18
2023-05-05T15:48:02.007Z,5.20
2023-05-05T15:50:29.100Z,6.20
2023-05-05T15:52:57.404Z,6.00
2023-05-05T15:55:24.599Z,5.82
2023-05-05T15:57:51.846Z,6.13
2023-05-05T16:00:19.177Z,6.00
2023-05-05T16:02:46.367Z,5.75
2023-05-05T16:05:13.836Z,5.57
2023-05-05T16:07:41.056Z,5.90
2023-05-05T16:10:09.014Z,5.88
2023-05-05T16:12:36.131Z,5.80
2023-05-05T16:15:03.614Z,5.82
2023-05-05T16:17:31.419Z,5.28
2023-05-05T16:19:58.838Z,5.15
2023-05-05T16:22:25.962Z,5.00
2023-05-05T16:24:53.020Z,5.65
2023-05-05T16:27:20.245Z,6.18
2023-05-05T16:29:47.482Z,5.20
2023-05-05T16:32:14.530Z,5.78
2023-05-05T16:34:41.632Z,5.30
2023-05-05T16:37:08.792Z,5.97
2023-05-05T16:39:40.274Z,6.30
2023-05-05T16:42:07.686Z,5.70
2023-05-05T16:44:34.984Z,5.78
2023-05-05T16:47:02.206Z,5.70
2023-05-05T16:49:29.413Z,6.15
2023-05-05T16:51:57.345Z,6.18
2023-05-05T16:54:24.442Z,5.85
2023-05-05T16:56:52.416Z,6.55
2023-05-05T16:59:19.615Z,6.72
2023-05-05T17:01:47.019Z,7.57
2023-05-05T17:04:14.366Z,8.73
2023-05-05T17:06:41.692Z,9.63
2023-05-05T17:09:08.910Z,8.82
2023-05-05T17:11:36.157Z,8.40
2023-05-05T17:14:03.359Z,8.70
2023-05-05T17:16:31.234Z,8.77
2023-05-05T17:18:58.521Z,8.48
2023-05-05T17:21:26.933Z,8.90
2023-05-05T17:23:53.997Z,7.47
2023-05-05T17:26:21.215Z,7.38
2023-05-05T17:28:48.474Z,7.00
2023-05-05T17:31:15.679Z,6.65
2023-05-05T17:33:42.865Z,6.55
2023-05-05T17:36:10.243Z,7.50
2023-05-05T17:38:37.501Z,6.40
2023-05-05T17:41:04.674Z,6.75
2023-05-05T17:43:31.832Z,7.25
2023-05-05T17:45:58.933Z,6.68
2023-05-05T17:48:26.854Z,6.75
2023-05-05T17:50:54.158Z,6.25
2023-05-05T17:53:21.609Z,5.93
2023-05-05T17:55:49.170Z,5.40
2023-05-05T17:58:16.374Z,7.10
2023-05-05T18:00:43.458Z,6.57
2023-05-05T18:03:10.979Z,6.63
2023-05-05T18:05:38.105Z,6.30
2023-05-05T18:08:05.682Z,5.47
2023-05-05T18:10:32.849Z,7.28
2023-05-05T18:13:00.094Z,6.22
2023-05-05T18:15:27.464Z,6.75
2023-05-05T18:17:54.596Z,6.50
2023-05-05T18:20:21.842Z,7.38
2023-05-05T18:22:49.031Z,6.07
2023-05-05T18:25:16.251Z,5.78
2023-05-05T18:27:44.653Z,5.97
2023-05-05T18:30:12.608Z,6.38
2023-05-05T18:32:40.043Z,5.88
2023-05-05T18:35:09.436Z,6.38
2023-05-05T18:37:36.858Z,6.47
2023-05-05T18:40:04.236Z,6.57
2023-05-05T18:42:31.643Z,6.25
2023-05-05T18:45:02.047Z,6.45
2023-05-05T18:47:34.172Z,6.68
2023-05-05T18:50:01.682Z,6.07
2023-05-05T18:52:28.974Z,5.65
2023-05-05T18:54:56.162Z,6.40
2023-05-05T18:57:23.468Z,6.72
2023-05-05T18:59:50.570Z,5.65
2023-05-05T19:02:18.163Z,6.13
2023-05-05T19:04:45.626Z,6.95
2023-05-05T19:07:18.376Z,6.80
2023-05-05T19:09:51.246Z,8.52
2023-05-05T19:12:18.450Z,6.40
2023-05-05T19:14:46.453Z,6.05
2023-05-05T19:17:13.677Z,5.72
2023-05-05T19:19:40.802Z,5.82
2023-05-05T19:22:07.932Z,5.40
2023-05-05T19:24:35.788Z,6.28
2023-05-05T19:27:03.115Z,6.97
2023-05-05T19:29:32.147Z,7.25
2023-05-05T19:31:59.687Z,8.52
2023-05-05T19:34:27.055Z,9.43
2023-05-05T19:36:54.140Z,8.88
2023-05-05T19:39:21.286Z,7.63
2023-05-05T19:41:48.425Z,6.47
2023-05-05T19:44:15.590Z,8.15
2023-05-05T19:46:43.025Z,6.70
2023-05-05T19:49:10.364Z,7.72
2023-05-05T19:51:37.581Z,6.47
2023-05-05T19:54:04.970Z,6.53
2023-05-05T19:56:32.124Z,7.40
2023-05-05T19:59:00.867Z,6.47
2023-05-05T20:01:29.398Z,6.82
2023-05-05T20:03:57.478Z,6.10
2023-05-05T20:06:24.928Z,5.90
2023-05-05T20:08:52.786Z,6.00
2023-05-05T20:11:21.274Z,6.88
2023-05-05T20:13:49.431Z,4.82
2023-05-05T20:16:16.742Z,4.90
2023-05-05T20:18:44.514Z,5.78
2023-05-05T20:21:11.847Z,5.18
2023-05-05T20:23:39.105Z,6.15
2023-05-05T20:26:06.637Z,5.43
2023-05-05T20:28:33.968Z,5.03
2023-05-05T20:31:01.219Z,5.10
2023-05-05T20:33:29.365Z,4.78
2023-05-05T20:35:56.576Z,4.90
2023-05-05T20:38:23.771Z,4.40
2023-05-05T20:40:52.252Z,4.18
2023-05-05T20:43:19.797Z,3.60
2023-05-05T20:45:47.235Z,3.80
2023-05-05T20:48:14.534Z,3.92
2023-05-05T20:50:42.309Z,3.90
2023-05-05T20:53:11.153Z,4.78
2023-05-05T20:55:38.295Z,4.55
2023-05-05T20:58:07.544Z,5.18
2023-05-05T21:00:34.956Z,5.30
2023-05-05T21:03:05.265Z,5.47
2023-05-05T21:05:32.521Z,4.75
2023-05-05T21:08:01.015Z,4.97
2023-05-05T21:10:33.242Z,5.53
2023-05-05T21:13:02.593Z,4.80
2023-05-05T21:15:30.441Z,5.05
2023-05-05T21:17:57.942Z,5.97
2023-05-05T21:20:25.056Z,5.95
2023-05-05T21:22:52.402Z,6.43
2023-05-05T21:25:21.425Z,6.28
2023-05-05T21:27:49.290Z,7.32
2023-05-05T21:30:17.150Z,6.53
2023-05-05T21:32:44.850Z,6.57
2023-05-05T21:35:12.125Z,6.45
2023-05-05T21:37:40.107Z,6.15
2023-05-05T21:40:10.992Z,6.43
2023-05-05T21:42:38.341Z,6.75
2023-05-05T21:45:05.920Z,6.68
2023-05-05T21:47:33.109Z,6.65
2023-05-05T21:50:00.282Z,6.43
2023-05-05T21:52:27.356Z,6.00
2023-05-05T21:54:54.509Z,5.82
2023-05-05T21:57:21.786Z,6.40
2023-05-05T21:59:49.070Z,5.90
2023-05-05T22:02:16.214Z,6.13
2023-05-05T22:04:46.080Z,5.45
2023-05-05T22:07:13.239Z,6.03
2023-05-05T22:09:40.423Z,5.43
2023-05-05T22:12:07.615Z,6.07
2023-05-05T22:14:34.766Z,6.28
2023-05-05T22:17:01.967Z,6.28
2023-05-05T22:19:29.183Z,6.70
2023-05-05T22:21:58.701Z,6.05
2023-05-05T22:24:25.922Z,6.22
2023-05-05T22:26:53.728Z,6.93
2023-05-05T22:29:20.880Z,6.20
2023-05-05T22:31:48.083Z,5.88
2023-05-05T22:34:15.282Z,6.50
2023-05-05T22:36:42.473Z,6.40
2023-05-05T22:39:09.682Z,6.32
2023-05-05T22:41:36.962Z,6.38
2023-05-05T22:44:04.157Z,6.10
2023-05-05T22:46:31.388Z,6.40
2023-05-05T22:48:58.732Z,6.07
2023-05-05T22:51:25.872Z,5.47
2023-05-05T22:53:52.937Z,6.18
2023-05-05T22:56:20.103Z,5.55
2023-05-05T22:58:47.227Z,4.93
2023-05-05T23:01:14.635Z,5.03
2023-05-05T23:03:41.966Z,5.68
2023-05-05T23:06:09.763Z,5.97
2023-05-05T23:08:36.923Z,5.35
2023-05-05T23:11:04.104Z,5.10
2023-05-05T23:13:31.271Z,5.53
2023-05-05T23:15:58.391Z,5.63
2023-05-05T23:18:25.758Z,5.18
2023-05-05T23:20:52.892Z,5.15
2023-05-05T23:23:20.042Z,5.60
2023-05-05T23:25:47.777Z,5.35
2023-05-05T23:28:15.199Z,5.45
2023-05-05T23:30:42.330Z,4.85
2023-05-05T23:33:09.446Z,5.72
2023-05-05T23:35:39.624Z,5.22
2023-05-05T23:38:06.849Z,4.22
2023-05-05T23:40:34.556Z,4.32
2023-05-05T23:43:01.831Z,4.30
2023-05-05T23:45:29.168Z,4.22
2023-05-05T23:47:56.414Z,3.65
2023-05-05T23:50:23.495Z,3.90
2023-05-05T23:52:50.663Z,3.97
2023-05-05T23:55:17.829Z,3.25
2023-05-05T23:57:45.091Z,3.97
